createdAt,value
2019-03-29T00:05:04.528Z,11.60
2019-03-29T00:10:10.259Z,11.50
2019-03-29T00:15:15.332Z,11.50
2019-03-29T00:20:20.669Z,11.50
2019-03-29T00:25:25.838Z,11.40
2019-03-29T00:30:31.059Z,11.20
2019-03-29T00:35:36.300Z,10.80
2019-03-29T00:40:41.432Z,10.70
2019-03-29T00:45:46.618Z,10.60
2019-03-29T00:50:51.888Z,6.20
2019-03-29T00:55:57.025Z,10.20
2019-03-29T01:01:02.176Z,10.40
2019-03-29T01:06:07.603Z,10.40
2019-03-29T01:11:13.085Z,10.50
2019-03-29T01:16:18.267Z,10.20
2019-03-29T01:21:23.594Z,10.50
2019-03-29T01:26:28.938Z,10.40
2019-03-29T01:31:34.184Z,10.60
2019-03-29T01:36:39.375Z,10.70
2019-03-29T01:41:44.528Z,10.70
2019-03-29T01:46:49.733Z,11.90
2019-03-29T01:51:54.982Z,10.40
2019-03-29T01:57:00.144Z,10.30
2019-03-29T02:02:05.560Z,10.10
2019-03-29T02:07:11.960Z,10.00
2019-03-29T02:12:17.422Z,10.00
2019-03-29T02:17:22.819Z,10.10
2019-03-29T02:22:28.278Z,10.00
2019-03-29T02:27:37.211Z,9.80
2019-03-29T02:32:42.308Z,9.90
2019-03-29T02:37:47.636Z,9.90
2019-03-29T02:42:52.767Z,10.00
2019-03-29T02:47:57.996Z,9.90
2019-03-29T02:53:03.181Z,10.30
2019-03-29T02:58:08.411Z,10.20
2019-03-29T03:03:13.564Z,9.90
2019-03-29T03:08:18.790Z,9.80
2019-03-29T03:13:24.157Z,9.80
2019-03-29T03:18:29.496Z,9.50
2019-03-29T03:23:34.556Z,9.10
2019-03-29T03:28:39.626Z,9.60
2019-03-29T03:33:44.726Z,9.60
2019-03-29T03:38:49.952Z,10.00
2019-03-29T03:43:55.233Z,10.30
2019-03-29T03:49:00.368Z,10.40
2019-03-29T03:54:05.638Z,10.50
2019-03-29T03:59:11.235Z,10.50
2019-03-29T04:04:16.497Z,10.40
2019-03-29T04:09:21.848Z,10.30
2019-03-29T04:14:26.901Z,10.00
2019-03-29T04:19:32.008Z,9.90
2019-03-29T04:24:37.593Z,10.00
2019-03-29T04:29:42.781Z,10.10
2019-03-29T04:34:48.079Z,10.20
2019-03-29T04:40:06.499Z,10.20
2019-03-29T04:45:00.513Z,10.20
2019-03-29T04:50:06.414Z,10.20
2019-03-29T04:55:11.611Z,10.30
2019-03-29T05:00:17.109Z,10.30
2019-03-29T05:05:22.388Z,10.20
2019-03-29T05:10:27.662Z,10.20
2019-03-29T05:15:32.849Z,10.10
2019-03-29T05:20:38.458Z,10.10
2019-03-29T05:25:43.800Z,10.00
2019-03-29T05:30:49.287Z,10.00
2019-03-29T05:35:54.599Z,10.10
2019-03-29T05:40:59.870Z,10.10
2019-03-29T05:46:06.684Z,10.20
2019-03-29T05:51:12.199Z,10.20
2019-03-29T05:56:18.233Z,10.30
2019-03-29T06:01:23.805Z,10.50
2019-03-29T06:06:28.919Z,10.60
2019-03-29T06:11:34.490Z,10.80
2019-03-29T06:16:39.729Z,11.00
2019-03-29T06:21:46.425Z,11.20
2019-03-29T06:26:51.641Z,11.50
2019-03-29T06:32:00.355Z,11.60
2019-03-29T06:37:06.475Z,11.80
2019-03-29T06:42:11.673Z,12.00
2019-03-29T06:47:17.083Z,12.40
2019-03-29T06:52:22.347Z,12.80
2019-03-29T06:57:27.726Z,13.20
2019-03-29T07:02:32.844Z,13.90
2019-03-29T07:07:38.309Z,14.50
2019-03-29T07:12:43.635Z,14.90
2019-03-29T07:17:49.255Z,15.60
2019-03-29T07:22:54.799Z,15.30
2019-03-29T07:27:59.849Z,15.30
2019-03-29T07:33:05.402Z,14.20
2019-03-29T07:38:10.747Z,13.30
2019-03-29T07:43:15.844Z,14.90
2019-03-29T07:48:20.907Z,15.00
2019-03-29T07:53:28.990Z,16.40
2019-03-29T07:58:34.310Z,15.50
2019-03-29T08:03:39.439Z,16.10
2019-03-29T08:08:44.471Z,15.70
2019-03-29T08:13:49.657Z,17.00
2019-03-29T08:18:54.954Z,18.20
2019-03-29T08:24:00.146Z,18.40
2019-03-29T08:29:05.334Z,17.30
2019-03-29T08:34:10.553Z,16.30
2019-03-29T08:39:27.233Z,18.20
2019-03-29T08:44:22.768Z,17.60
2019-03-29T08:49:27.977Z,16.20
2019-03-29T08:54:33.247Z,19.00
2019-03-29T08:59:40.198Z,19.10
2019-03-29T09:04:45.375Z,19.10
2019-03-29T09:09:50.770Z,20.80
2019-03-29T09:14:55.979Z,20.10
2019-03-29T09:20:01.203Z,19.80
2019-03-29T09:25:06.555Z,18.50
2019-03-29T09:30:15.692Z,19.10
2019-03-29T09:35:20.969Z,19.10
2019-03-29T09:40:26.310Z,22.10
2019-03-29T09:45:31.966Z,22.70
2019-03-29T09:50:37.034Z,24.10
2019-03-29T09:55:45.556Z,24.70
2019-03-29T10:00:49.548Z,23.90
2019-03-29T10:05:54.699Z,21.70
2019-03-29T10:10:59.796Z,21.30
2019-03-29T10:16:04.902Z,20.20
2019-03-29T10:21:10.210Z,21.50
2019-03-29T10:26:15.210Z,19.80
2019-03-29T10:31:31.656Z,22.60
2019-03-29T10:36:27.267Z,21.70
2019-03-29T10:41:34.602Z,25.30
2019-03-29T10:46:39.336Z,26.90
2019-03-29T10:51:44.567Z,24.70
2019-03-29T10:56:49.791Z,25.90
2019-03-29T11:01:55.117Z,24.80
2019-03-29T11:07:00.302Z,28.20
2019-03-29T11:12:05.531Z,29.00
2019-03-29T11:17:10.734Z,29.10
2019-03-29T11:22:16.086Z,24.30
2019-03-29T11:27:22.620Z,24.80
2019-03-29T11:32:28.186Z,23.30
2019-03-29T11:37:33.690Z,23.60
2019-03-29T11:42:38.911Z,26.30
2019-03-29T11:47:44.438Z,27.90
2019-03-29T11:52:49.607Z,27.50
2019-03-29T11:57:56.026Z,29.20
2019-03-29T12:03:02.219Z,25.80
2019-03-29T12:08:08.151Z,29.70
2019-03-29T12:13:16.338Z,31.90
2019-03-29T12:18:21.619Z,29.00
2019-03-29T12:23:26.868Z,31.70
2019-03-29T12:28:31.883Z,31.80
2019-03-29T12:33:37.226Z,32.20
2019-03-29T12:38:42.483Z,30.80
2019-03-29T12:43:55.437Z,31.40
2019-03-29T12:48:54.733Z,32.50
2019-03-29T12:54:00.028Z,30.00
2019-03-29T12:59:05.324Z,31.00
2019-03-29T13:04:10.617Z,28.00
2019-03-29T13:09:15.909Z,32.50
2019-03-29T13:14:21.145Z,31.30
2019-03-29T13:19:26.730Z,31.10
2019-03-29T13:24:32.042Z,27.20
2019-03-29T13:29:37.381Z,29.60
2019-03-29T13:34:42.557Z,29.80
2019-03-29T13:39:47.808Z,31.40
2019-03-29T13:44:53.306Z,30.10
2019-03-29T13:49:58.647Z,28.50
2019-03-29T13:55:04.611Z,28.30
2019-03-29T14:00:12.146Z,32.10
2019-03-29T14:05:17.335Z,32.70
2019-03-29T14:10:22.614Z,31.40
2019-03-29T14:15:30.973Z,28.80
2019-03-29T14:20:36.177Z,28.90
2019-03-29T14:25:41.426Z,31.40
2019-03-29T14:30:46.598Z,28.50
2019-03-29T14:35:51.791Z,28.10
2019-03-29T14:40:56.887Z,27.80
2019-03-29T14:46:02.083Z,27.00
2019-03-29T14:51:07.427Z,27.50
2019-03-29T14:56:12.631Z,26.80
2019-03-29T15:01:18.153Z,24.20
2019-03-29T15:06:23.827Z,23.80
2019-03-29T15:11:29.058Z,26.40
2019-03-29T15:16:34.164Z,23.90
2019-03-29T15:21:39.267Z,22.50
2019-03-29T15:26:44.684Z,22.60
2019-03-29T15:31:49.963Z,25.60
2019-03-29T15:36:55.203Z,27.80
2019-03-29T15:42:00.411Z,27.70
2019-03-29T15:47:05.698Z,27.50
2019-03-29T15:52:12.318Z,26.80
2019-03-29T15:57:24.037Z,26.10
2019-03-29T16:02:24.735Z,26.30
2019-03-29T16:07:44.816Z,25.30
2019-03-29T16:12:50.057Z,24.70
2019-03-29T16:17:55.213Z,21.40
2019-03-29T16:23:00.609Z,20.70
2019-03-29T16:28:05.847Z,21.40
2019-03-29T16:33:11.143Z,21.60
2019-03-29T16:38:16.361Z,20.90
2019-03-29T16:43:21.691Z,20.40
2019-03-29T16:48:27.414Z,20.60
2019-03-29T16:53:32.712Z,20.50
2019-03-29T16:58:38.015Z,20.20
2019-03-29T17:03:43.125Z,20.20
2019-03-29T17:08:48.230Z,20.30
2019-03-29T17:13:56.558Z,20.50
2019-03-29T17:19:01.743Z,20.60
2019-03-29T17:24:07.178Z,20.20
2019-03-29T17:29:12.435Z,19.80
2019-03-29T17:34:17.835Z,19.80
2019-03-29T17:39:23.213Z,19.80
2019-03-29T17:44:28.643Z,19.60
2019-03-29T17:49:33.792Z,19.40
2019-03-29T17:54:39.421Z,19.30
2019-03-29T17:59:44.712Z,19.30
2019-03-29T18:04:50.308Z,19.20
2019-03-29T18:09:55.841Z,19.20
2019-03-29T18:15:01.137Z,19.10
2019-03-29T18:20:06.584Z,18.90
2019-03-29T18:25:12.263Z,18.70
2019-03-29T18:30:20.182Z,18.60
2019-03-29T18:35:25.596Z,18.40
2019-03-29T18:40:30.884Z,17.90
2019-03-29T18:45:36.266Z,17.50
2019-03-29T18:50:41.585Z,16.90
2019-03-29T18:55:47.129Z,17.20
2019-03-29T19:00:52.440Z,17.20
2019-03-29T19:05:57.632Z,17.40
2019-03-29T19:11:05.891Z,17.50
2019-03-29T19:16:12.170Z,17.50
2019-03-29T19:21:18.015Z,17.60
2019-03-29T19:26:23.401Z,17.50
2019-03-29T19:31:29.125Z,17.30
2019-03-29T19:36:34.654Z,17.30
2019-03-29T19:41:39.850Z,17.20
2019-03-29T19:46:45.147Z,17.10
2019-03-29T19:51:50.294Z,17.00
2019-03-29T19:56:55.563Z,16.70
2019-03-29T20:02:00.828Z,16.50
2019-03-29T20:07:06.155Z,15.30
2019-03-29T20:12:11.347Z,15.10
2019-03-29T20:17:26.872Z,15.00
2019-03-29T20:22:23.755Z,15.00
2019-03-29T20:27:28.942Z,14.90
2019-03-29T20:32:36.840Z,14.70
2019-03-29T20:37:41.891Z,14.60
2019-03-29T20:42:47.292Z,14.60
2019-03-29T20:47:52.698Z,14.50
2019-03-29T20:52:57.957Z,14.30
2019-03-29T20:58:03.351Z,14.50
2019-03-29T21:03:08.555Z,14.10
2019-03-29T21:08:13.836Z,14.00
2019-03-29T21:13:19.283Z,18.20
2019-03-29T21:18:24.478Z,13.90
2019-03-29T21:23:29.649Z,13.90
2019-03-29T21:28:35.137Z,13.80
2019-03-29T21:33:41.077Z,13.70
2019-03-29T21:38:46.532Z,13.70
2019-03-29T21:43:51.812Z,13.80
2019-03-29T21:48:57.051Z,13.50
2019-03-29T21:54:02.330Z,13.50
2019-03-29T21:59:07.534Z,13.30
2019-03-29T22:04:16.519Z,13.50
2019-03-29T22:09:21.730Z,13.20
2019-03-29T22:14:26.893Z,13.20
2019-03-29T22:19:32.376Z,10.60
2019-03-29T22:24:37.700Z,13.00
2019-03-29T22:29:42.962Z,12.80
2019-03-29T22:34:48.209Z,12.70
2019-03-29T22:39:53.773Z,12.50
2019-03-29T22:44:59.219Z,12.50
2019-03-29T22:50:04.675Z,15.00
2019-03-29T22:55:10.180Z,12.40
2019-03-29T23:00:20.967Z,14.20
2019-03-29T23:05:26.238Z,12.20
2019-03-29T23:10:31.559Z,12.20
2019-03-29T23:15:36.866Z,12.10
2019-03-29T23:20:41.949Z,12.00
2019-03-29T23:25:50.957Z,11.80
2019-03-29T23:30:56.093Z,11.70
2019-03-29T23:36:04.878Z,11.60
2019-03-29T23:41:10.250Z,11.70
2019-03-29T23:46:15.400Z,11.90
2019-03-29T23:51:20.679Z,11.90
2019-03-29T23:56:25.962Z,12.00
